Time;durP1;ratioP1;P1;durP2;ratioP2;P2;SDS_P1;SDS_P2;PMS_P1;PMS_P2;Temp;Humidity;BMP_temperature;BMP_pressure;BME280_temperature;BME280_humidity;BME280_pressure;Samples;Min_cycle;Max_cycle;Signal;HPM_P1;HPM_P2
2023/01/30 00:00:56;;;;;;;182.05;89.10;;;;;;;3.20;100.00;101759.47;5113881;28;20539;-55
2023/01/30 00:03:23;;;;;;;183.35;88.13;;;;;;;3.25;100.00;101743.75;5113403;28;20123;-56
2023/01/30 00:05:48;;;;;;;183.05;84.18;;;;;;;3.29;100.00;101735.56;5113221;28;20379;-55
2023/01/30 00:08:14;;;;;;;169.57;87.25;;;;;;;3.39;100.00;101723.50;5113991;28;20464;-55
2023/01/30 00:10:40;;;;;;;183.98;88.57;;;;;;;3.46;100.00;101723.19;5112941;28;20024;-55
2023/01/30 00:13:05;;;;;;;179.73;90.40;;;;;;;3.53;100.00;101738.13;5113599;28;20364;-53
2023/01/30 00:15:30;;;;;;;164.55;84.95;;;;;;;3.57;100.00;101750.31;5113288;28;20472;-55
2023/01/30 00:17:55;;;;;;;174.30;84.75;;;;;;;3.61;100.00;101720.81;5113212;28;20104;-55
2023/01/30 00:20:21;;;;;;;176.07;84.97;;;;;;;3.62;100.00;101726.03;5113572;28;20031;-55
2023/01/30 00:22:46;;;;;;;172.85;85.03;;;;;;;3.63;100.00;101737.13;5112764;28;20023;-54
2023/01/30 00:25:11;;;;;;;169.65;83.53;;;;;;;3.63;100.00;101735.47;5113471;28;20016;-56
2023/01/30 00:27:37;;;;;;;177.15;85.30;;;;;;;3.65;100.00;101724.50;5112935;28;20042;-55
2023/01/30 00:30:04;;;;;;;162.88;85.20;;;;;;;3.65;100.00;101729.59;5112995;28;20027;-55
2023/01/30 00:32:30;;;;;;;164.13;80.85;;;;;;;3.65;100.00;101729.59;5113300;28;20019;-55
2023/01/30 00:34:55;;;;;;;174.02;86.45;;;;;;;3.66;100.00;101721.16;5113161;28;20030;-54
2023/01/30 00:37:21;;;;;;;164.23;83.28;;;;;;;3.67;100.00;101723.81;5112969;28;20024;-55
2023/01/30 00:39:46;;;;;;;171.38;85.70;;;;;;;3.68;100.00;101715.41;5113173;28;20044;-56
2023/01/30 00:47:39;;;;;;;173.38;85.15;;;;;;;3.71;100.00;101717.28;5112761;28;20145;-55
2023/01/30 00:50:05;;;;;;;164.40;84.40;;;;;;;3.72;100.00;101711.38;5113739;28;20465;-55
2023/01/30 00:52:30;;;;;;;164.02;84.05;;;;;;;3.73;100.00;101715.72;5112387;28;20024;-55
2023/01/30 00:54:55;;;;;;;178.82;87.38;;;;;;;3.76;100.00;101718.50;5112969;28;20027;-55
2023/01/30 00:57:21;;;;;;;163.75;85.20;;;;;;;3.76;100.00;101713.41;5113097;28;20031;-55
2023/01/30 00:59:46;;;;;;;175.18;89.68;;;;;;;3.76;100.00;101703.22;5112522;28;20036;-55
2023/01/30 01:02:11;;;;;;;164.20;88.30;;;;;;;3.79;100.00;101695.75;5114726;28;20043;-55
2023/01/30 01:04:42;;;;;;;166.63;88.20;;;;;;;3.83;100.00;101699.41;5116982;28;20051;-56
2023/01/30 01:07:11;;;;;;;175.18;88.40;;;;;;;3.84;100.00;101691.88;5116681;28;20368;-55
2023/01/30 01:09:37;;;;;;;169.10;87.32;;;;;;;3.88;100.00;101698.94;5116574;28;20399;-55
2023/01/30 01:12:03;;;;;;;173.65;89.55;;;;;;;3.92;100.00;101688.19;5116853;28;20019;-55
2023/01/30 01:14:28;;;;;;;166.05;86.07;;;;;;;3.98;100.00;101676.63;5116852;28;20027;-53
2023/01/30 01:16:53;;;;;;;164.85;83.70;;;;;;;4.01;100.00;101670.09;5116874;28;20023;-55
2023/01/30 01:19:18;;;;;;;166.55;84.65;;;;;;;4.04;100.00;101684.72;5116688;28;20059;-54
2023/01/30 01:21:44;;;;;;;163.90;83.43;;;;;;;4.06;100.00;101691.69;5116734;28;20031;-55
2023/01/30 01:24:12;;;;;;;158.23;82.60;;;;;;;4.10;100.00;101674.94;5116886;28;20463;-55
2023/01/30 01:26:38;;;;;;;162.00;81.88;;;;;;;4.13;100.00;101670.03;5115927;28;20496;-55
2023/01/30 01:29:03;;;;;;;158.93;79.65;;;;;;;4.15;100.00;101673.59;5116618;28;20511;-55
2023/01/30 01:31:29;;;;;;;151.77;81.85;;;;;;;4.18;100.00;101658.50;5116776;28;20036;-55
2023/01/30 01:33:54;;;;;;;142.30;79.55;;;;;;;4.20;100.00;101659.50;5116347;28;20027;-55
2023/01/30 01:36:21;;;;;;;152.90;78.03;;;;;;;4.22;100.00;101672.34;5116623;28;20032;-54
2023/01/30 01:38:46;;;;;;;152.13;78.65;;;;;;;4.21;100.00;101676.59;5116417;28;20051;-54
2023/01/30 01:41:13;;;;;;;142.57;77.32;;;;;;;4.22;100.00;101670.69;5116140;28;20055;-55
2023/01/30 01:44:00;;;;;;;143.27;79.27;;;;;;;4.25;100.00;101668.34;5116213;28;20020;-55
2023/01/30 01:46:45;;;;;;;146.57;76.32;;;;;;;4.26;100.00;101651.34;5116352;28;20024;-55
2023/01/30 01:49:19;;;;;;;144.82;77.35;;;;;;;4.28;100.00;101639.59;5115972;28;20028;-54
2023/01/30 01:51:50;;;;;;;144.30;78.00;;;;;;;4.28;100.00;101637.06;5115876;28;20580;-54
2023/01/30 01:54:24;;;;;;;137.35;75.97;;;;;;;4.29;100.00;101621.84;5116039;28;20023;-55
2023/01/30 01:56:50;;;;;;;143.15;78.45;;;;;;;4.33;100.00;101616.97;5116057;28;20031;-55
2023/01/30 01:59:24;;;;;;;145.48;77.68;;;;;;;4.33;100.00;101627.16;5116193;28;20072;-55
2023/01/30 02:01:52;;;;;;;146.25;76.95;;;;;;;4.34;100.00;101618.69;5115464;28;20024;-55
2023/01/30 02:05:00;;;;;;;145.23;76.80;;;;;;;4.37;100.00;101631.69;5115940;28;20050;-55
2023/01/30 02:07:02;;;;;;;137.10;75.78;;;;;;;4.37;100.00;101618.94;5116090;28;20055;-54
2023/01/30 02:09:28;;;;;;;149.93;76.80;;;;;;;4.38;100.00;101616.47;5115379;28;20024;-55
2023/01/30 02:11:58;;;;;;;146.13;76.35;;;;;;;4.42;100.00;101630.34;5115832;28;20022;-55
2023/01/30 02:14:24;;;;;;;134.25;74.13;;;;;;;4.40;100.00;101619.13;5115789;28;20027;-55
2023/01/30 02:16:49;;;;;;;143.45;75.18;;;;;;;4.41;100.00;101615.78;5115313;28;20034;-56
2023/01/30 02:19:37;;;;;;;144.35;76.32;;;;;;;4.38;100.00;101595.19;5115823;28;20031;-56
2023/01/30 02:22:21;;;;;;;148.52;77.55;;;;;;;4.37;100.00;101593.41;5115916;28;20028;-55
2023/01/30 02:25:04;;;;;;;146.93;76.93;;;;;;;4.37;100.00;101598.50;5115754;28;20027;-55
2023/01/30 02:27:56;;;;;;;147.38;79.93;;;;;;;4.38;100.00;101595.19;5115663;28;20031;-54
2023/01/30 02:30:55;;;;;;;147.20;77.68;;;;;;;4.39;100.00;101592.72;5115269;28;20023;-56
2023/01/30 02:33:49;;;;;;;142.45;76.38;;;;;;;4.40;100.00;101584.28;5115652;28;20050;-55
2023/01/30 02:36:38;;;;;;;148.25;80.07;;;;;;;4.41;100.00;101580.06;5113208;28;20087;-55
2023/01/30 02:39:10;;;;;;;141.43;75.63;;;;;;;4.42;100.00;101579.28;5115561;28;20424;-55
2023/01/30 02:41:42;;;;;;;140.95;74.60;;;;;;;4.43;100.00;101584.50;5115571;28;20058;-55
2023/01/30 02:44:16;;;;;;;146.95;75.95;;;;;;;4.43;100.00;101599.78;5115127;28;20019;-54
2023/01/30 02:47:10;;;;;;;138.23;76.22;;;;;;;4.45;100.00;101584.56;5115044;28;20038;-55
2023/01/30 02:49:44;;;;;;;140.48;76.20;;;;;;;4.47;100.00;101572.81;5115241;28;20023;-55
2023/01/30 02:52:12;;;;;;;135.23;76.10;;;;;;;4.47;100.00;101580.47;5114949;28;20107;-55
2023/01/30 02:54:37;;;;;;;150.55;74.78;;;;;;;4.50;100.00;101580.66;5114906;28;20031;-56
2023/01/30 02:57:03;;;;;;;142.48;77.30;;;;;;;4.50;100.00;101580.66;5115354;28;20035;-55
2023/01/30 02:59:36;;;;;;;146.73;75.95;;;;;;;4.50;100.00;101567.91;5114424;28;20028;-55
2023/01/30 03:02:28;;;;;;;135.75;76.72;;;;;;;4.54;100.00;101566.44;5114892;28;20023;-56
2023/01/30 03:05:02;;;;;;;146.38;77.38;;;;;;;4.51;100.00;101559.47;5114369;28;20048;-56
2023/01/30 03:07:54;;;;;;;153.63;79.20;;;;;;;4.50;100.00;101555.13;5114538;28;20054;-55
2023/01/30 03:10:37;;;;;;;146.32;79.05;;;;;;;4.50;100.00;101559.38;5114973;28;20061;-54
2023/01/30 03:13:13;;;;;;;156.05;81.47;;;;;;;4.47;100.00;101554.94;5114628;28;20024;-54
2023/01/30 03:15:49;;;;;;;163.63;84.53;;;;;;;4.44;100.00;101554.72;5114614;28;20015;-54
2023/01/30 03:18:17;;;;;;;161.48;81.80;;;;;;;4.42;100.00;101554.63;5114825;28;20028;-55
2023/01/30 03:20:43;;;;;;;157.02;82.10;;;;;;;4.42;100.00;101551.22;5113985;28;20406;-54
2023/01/30 03:23:08;;;;;;;159.13;84.43;;;;;;;4.40;100.00;101545.09;5114403;28;20478;-55
2023/01/30 03:25:35;;;;;;;170.45;85.90;;;;;;;4.39;100.00;101543.34;5113257;28;20485;-54
2023/01/30 03:28:02;;;;;;;171.38;87.40;;;;;;;4.39;100.00;101546.78;5114740;28;20058;-55
2023/01/30 03:30:28;;;;;;;181.02;89.43;;;;;;;4.40;100.00;101542.56;5113946;28;20475;-54
2023/01/30 03:32:53;;;;;;;173.90;87.22;;;;;;;4.40;100.00;101537.44;5113933;28;20031;-54
2023/01/30 03:35:18;;;;;;;169.27;88.20;;;;;;;4.39;100.00;101535.66;5114273;28;20479;-54
2023/01/30 03:37:44;;;;;;;188.02;90.07;;;;;;;4.39;100.00;101538.22;5114137;28;20031;-55
2023/01/30 03:40:15;;;;;;;186.05;91.70;;;;;;;4.38;100.00;101533.94;5113932;28;20023;-54
2023/01/30 03:42:40;;;;;;;185.27;87.32;;;;;;;4.38;100.00;101526.28;5113742;28;20550;-55
2023/01/30 03:45:06;;;;;;;180.63;88.32;;;;;;;4.39;100.00;101525.47;5114461;28;20051;-55
2023/01/30 03:47:32;;;;;;;185.25;89.25;;;;;;;4.38;100.00;101523.72;5113302;28;20031;-55
2023/01/30 03:49:57;;;;;;;186.50;89.97;;;;;;;4.39;100.00;101522.91;5113981;28;20026;-55
2023/01/30 03:52:22;;;;;;;185.32;87.47;;;;;;;4.41;100.00;101526.47;5111574;28;20023;-54
2023/01/30 03:54:47;;;;;;;173.85;87.22;;;;;;;4.41;100.00;101529.88;5093035;28;20054;-53
2023/01/30 03:57:13;;;;;;;177.15;85.95;;;;;;;4.44;100.00;101521.53;5093566;28;20361;-54
2023/01/30 03:59:38;;;;;;;168.32;83.20;;;;;;;4.44;100.00;101522.44;5093546;28;20046;-54
2023/01/30 04:02:04;;;;;;;169.38;81.85;;;;;;;4.48;100.00;101531.19;5093186;28;20038;-55
2023/01/30 04:04:29;;;;;;;160.75;81.38;;;;;;;4.50;100.00;101534.72;5092840;28;20558;-55
2023/01/30 04:06:54;;;;;;;153.85;76.57;;;;;;;4.52;100.00;101535.72;5093531;28;20464;-55
2023/01/30 04:09:19;;;;;;;140.93;72.13;;;;;;;4.55;100.00;101541.00;5092927;28;20028;-55
2023/01/30 04:11:45;;;;;;;146.35;73.85;;;;;;;4.58;100.00;101528.47;5093030;28;20034;-52
2023/01/30 04:14:10;;;;;;;133.18;68.18;;;;;;;4.63;100.00;101535.53;5093678;28;20028;-54
2023/01/30 04:16:35;;;;;;;138.45;67.45;;;;;;;4.65;100.00;101537.41;5092531;28;20078;-54
2023/01/30 04:19:01;;;;;;;129.65;64.07;;;;;;;4.67;100.00;101537.50;5093086;28;20016;-54
2023/01/30 04:21:26;;;;;;;126.30;61.60;;;;;;;4.70;100.00;101523.25;5092803;28;20085;-54
2023/01/30 04:23:51;;;;;;;120.32;58.88;;;;;;;4.73;100.00;101518.31;5092799;28;20055;-54
2023/01/30 04:26:17;;;;;;;106.65;56.38;;;;;;;4.77;100.00;101516.88;5092853;28;20065;-54
2023/01/30 04:28:43;;;;;;;107.75;54.47;;;;;;;4.78;100.00;101521.19;5093074;28;20498;-54
2023/01/30 04:31:09;;;;;;;109.72;56.83;;;;;;;4.79;100.00;101512.75;5092679;28;20035;-53
2023/01/30 04:33:34;;;;;;;101.63;52.47;;;;;;;4.80;100.00;101519.59;5092600;28;20028;-54
2023/01/30 04:36:01;;;;;;;99.53;52.83;;;;;;;4.80;100.00;101514.50;5091805;28;20471;-53
2023/01/30 04:38:28;;;;;;;89.82;49.42;;;;;;;4.84;100.00;101508.81;5092512;28;20021;-55
2023/01/30 04:40:55;;;;;;;89.82;47.65;;;;;;;4.87;100.00;101509.00;5093171;28;20020;-54
2023/01/30 04:43:22;;;;;;;88.93;45.88;;;;;;;4.91;100.00;101508.41;5092585;28;20020;-54
2023/01/30 04:45:48;;;;;;;86.68;45.70;;;;;;;4.94;100.00;101508.63;5092483;28;20032;-55
2023/01/30 04:48:15;;;;;;;92.82;44.58;;;;;;;4.97;100.00;101507.94;5092970;28;20095;-55
2023/01/30 04:50:42;;;;;;;83.75;41.97;;;;;;;4.99;100.00;101516.53;5091982;28;20020;-54
2023/01/30 04:53:08;;;;;;;88.80;41.63;;;;;;;5.01;100.00;101530.31;5092933;28;20039;-54
2023/01/30 04:55:34;;;;;;;89.43;42.45;;;;;;;5.02;100.00;101523.53;5092680;28;20028;-54
2023/01/30 04:58:00;;;;;;;74.75;41.38;;;;;;;5.02;100.00;101514.22;5092270;28;20028;-53
2023/01/30 05:00:25;;;;;;;83.22;41.72;;;;;;;5.05;100.00;101516.94;5092650;28;20487;-55
2023/01/30 05:02:51;;;;;;;86.10;40.65;;;;;;;5.08;100.00;101521.34;5092740;28;20089;-53
2023/01/30 05:05:17;;;;;;;93.75;39.17;;;;;;;5.11;100.00;101526.66;5092084;28;20040;-54
2023/01/30 05:07:42;;;;;;;87.63;38.78;;;;;;;5.16;100.00;101517.59;5092344;28;20035;-54
2023/01/30 05:10:08;;;;;;;83.18;37.65;;;;;;;5.21;100.00;101528.13;5092720;28;20024;-55
2023/01/30 05:12:33;;;;;;;67.22;34.08;;;;;;;5.24;100.00;101525.75;5091824;28;20055;-54
2023/01/30 05:14:59;;;;;;;76.63;33.83;;;;;;;5.30;100.00;101528.69;5092402;28;20100;-54
2023/01/30 05:17:24;;;;;;;64.22;31.15;;;;;;;5.33;100.00;101522.88;5092588;28;20070;-54
2023/01/30 05:19:49;;;;;;;58.33;30.08;;;;;;;5.36;100.00;101523.06;5091840;28;20020;-53
2023/01/30 05:22:15;;;;;;;64.22;30.65;;;;;;;5.36;100.00;101528.16;5092630;28;20028;-53
2023/01/30 05:24:40;;;;;;;61.45;28.33;;;;;;;5.38;100.00;101521.50;5092468;28;20016;-54
2023/01/30 05:27:05;;;;;;;69.82;28.42;;;;;;;5.37;100.00;101532.50;5092143;28;20036;-54
2023/01/30 05:29:30;;;;;;;65.32;28.33;;;;;;;5.31;100.00;101524.44;5092149;28;20095;-54
2023/01/30 05:31:56;;;;;;;55.92;26.83;;;;;;;5.33;100.00;101522.88;5092486;28;20375;-54
2023/01/30 05:34:21;;;;;;;58.00;23.90;;;;;;;5.35;100.00;101521.31;5091901;28;20024;-54
2023/01/30 05:36:46;;;;;;;59.25;21.92;;;;;;;5.36;100.00;101512.84;5092210;28;20024;-53
2023/01/30 05:39:12;;;;;;;54.58;21.08;;;;;;;5.36;100.00;101520.50;5092109;28;20055;-54
2023/01/30 05:41:37;;;;;;;54.88;19.95;;;;;;;5.39;100.00;101513.91;5092062;28;20028;-54
2023/01/30 05:44:03;;;;;;;57.05;19.30;;;;;;;5.44;100.00;101511.66;5092386;28;20387;-54
2023/01/30 05:46:28;;;;;;;57.28;18.42;;;;;;;5.45;100.00;101518.53;5091588;28;20057;-55
2023/01/30 05:48:53;;;;;;;48.88;18.08;;;;;;;5.46;100.00;101511.72;5094693;28;20055;-54
2023/01/30 05:51:24;;;;;;;39.63;17.10;;;;;;;5.45;100.00;101513.41;5096308;28;20027;-54
2023/01/30 05:53:49;;;;;;;49.25;18.75;;;;;;;5.46;100.00;101524.53;5095328;28;20020;-55
2023/01/30 05:56:15;;;;;;;42.28;16.33;;;;;;;5.49;100.00;101520.47;5095920;28;20031;-54
2023/01/30 05:58:41;;;;;;;38.75;15.30;;;;;;;5.50;100.00;101527.38;5095571;28;20047;-54
2023/01/30 06:01:09;;;;;;;49.55;15.35;;;;;;;5.52;100.00;101541.09;5095482;28;20468;-54
2023/01/30 06:03:35;;;;;;;52.80;14.68;;;;;;;5.54;100.00;101542.09;5095269;28;20071;-54
2023/01/30 06:06:02;;;;;;;53.58;14.32;;;;;;;5.55;100.00;101527.63;5095862;28;20479;-54
2023/01/30 06:08:27;;;;;;;42.88;13.50;;;;;;;5.58;100.00;101538.06;5094855;28;20369;-55
2023/01/30 06:10:53;;;;;;;44.22;14.15;;;;;;;5.60;100.00;101534.81;5095436;28;20483;-54
2023/01/30 06:13:18;;;;;;;42.72;15.15;;;;;;;5.63;100.00;101538.31;5095621;28;20590;-54
2023/01/30 06:15:44;;;;;;;41.58;14.00;;;;;;;5.58;100.00;101540.63;5094791;28;20020;-55
2023/01/30 06:18:09;;;;;;;46.00;13.25;;;;;;;5.63;100.00;101553.66;5095242;28;20031;-54
2023/01/30 06:20:34;;;;;;;40.50;12.60;;;;;;;5.58;100.00;101550.84;5095415;28;20036;-54
2023/01/30 06:23:00;;;;;;;43.33;12.02;;;;;;;5.67;100.00;101570.97;5095222;28;20410;-55
2023/01/30 06:25:26;;;;;;;38.95;11.10;;;;;;;5.58;100.00;101561.94;5095302;28;20054;-53
2023/01/30 06:27:51;;;;;;;38.80;11.52;;;;;;;5.58;100.00;101566.19;5095274;28;20032;-54
2023/01/30 06:30:16;;;;;;;39.45;10.38;;;;;;;5.53;100.00;101570.13;5094920;28;20054;-53
2023/01/30 06:32:42;;;;;;;39.78;10.40;;;;;;;5.40;100.00;101589.81;5094657;28;20139;-53
2023/01/30 06:35:07;;;;;;;31.63;10.02;;;;;;;5.34;100.00;101588.56;5095469;28;20024;-54
2023/01/30 06:37:33;;;;;;;34.25;9.10;;;;;;;5.32;100.00;101585.00;5094613;28;20115;-54
2023/01/30 06:39:58;;;;;;;35.72;9.35;;;;;;;5.25;100.00;101597.44;5095103;28;20023;-54
2023/01/30 06:42:23;;;;;;;32.60;8.15;;;;;;;5.18;100.00;101585.03;5095137;28;20058;-54
2023/01/30 06:44:49;;;;;;;35.80;8.85;;;;;;;5.06;100.00;101584.25;5094101;28;20024;-54
2023/01/30 06:47:14;;;;;;;42.95;8.45;;;;;;;5.04;100.00;101586.69;5094877;28;20036;-54
2023/01/30 06:49:39;;;;;;;33.90;7.57;;;;;;;5.04;100.00;101596.06;5094421;28;20047;-54
2023/01/30 06:52:04;;;;;;;37.25;8.13;;;;;;;4.98;100.00;101590.53;5094869;28;20024;-55
2023/01/30 06:54:30;;;;;;;38.13;7.90;;;;;;;4.90;100.00;101592.59;5094785;28;20024;-54
2023/01/30 06:56:55;;;;;;;34.00;7.90;;;;;;;4.95;100.00;101581.88;5094374;28;20130;-54
2023/01/30 06:59:20;;;;;;;28.10;7.43;;;;;;;4.80;100.00;101575.78;5093639;28;20073;-53
2023/01/30 07:01:46;;;;;;;28.52;7.20;;;;;;;4.81;100.00;101566.47;5094317;28;20371;-53
2023/01/30 07:04:11;;;;;;;37.90;8.13;;;;;;;4.75;100.00;101577.16;5094058;28;20054;-55
2023/01/30 07:06:36;;;;;;;30.45;7.38;;;;;;;4.72;100.00;101572.72;5094167;28;20038;-53
2023/01/30 07:09:02;;;;;;;35.97;7.55;;;;;;;4.72;100.00;101575.28;5094625;28;20064;-54
2023/01/30 07:11:27;;;;;;;36.97;7.55;;;;;;;4.68;100.00;101575.00;5093500;28;20475;-55
2023/01/30 07:13:53;;;;;;;37.88;7.90;;;;;;;4.58;100.00;101583.72;5094272;28;20028;-54
2023/01/30 07:16:18;;;;;;;36.55;9.32;;;;;;;4.62;100.00;101595.91;5094335;28;20046;-54
2023/01/30 07:18:43;;;;;;;37.17;8.70;;;;;;;4.58;100.00;101602.50;5093718;28;20091;-55
2023/01/30 07:21:09;;;;;;;32.63;7.65;;;;;;;4.56;100.00;101598.94;5094217;28;20024;-53
2023/01/30 07:23:35;;;;;;;42.20;8.82;;;;;;;4.49;100.00;101601.88;5094063;28;20042;-54
2023/01/30 07:26:04;;;;;;;38.17;8.43;;;;;;;4.40;100.00;101601.25;5093705;28;20024;-54
2023/01/30 07:28:29;;;;;;;44.33;9.07;;;;;;;4.46;100.00;101606.78;5093641;28;20032;-54
2023/01/30 07:30:58;;;;;;;48.13;8.73;;;;;;;4.43;100.00;101602.34;5094162;28;20040;-54
2023/01/30 07:33:23;;;;;;;37.97;8.18;;;;;;;4.42;100.00;101607.38;5093806;28;20040;-54
2023/01/30 07:35:49;;;;;;;42.65;7.97;;;;;;;4.36;100.00;101617.16;5093447;28;20078;-55
2023/01/30 07:38:14;;;;;;;41.75;7.22;;;;;;;4.37;100.00;101619.81;5094041;28;20024;-55
2023/01/30 07:40:39;;;;;;;41.65;8.30;;;;;;;4.36;100.00;101623.13;5093140;28;20028;-54
2023/01/30 07:43:11;;;;;;;54.42;8.82;;;;;;;4.35;100.00;101630.69;5093682;28;20026;-54
2023/01/30 07:45:40;;;;;;;50.15;8.45;;;;;;;4.27;100.00;101633.63;5093448;28;20028;-53
2023/01/30 07:48:07;;;;;;;52.35;9.10;;;;;;;4.27;100.00;101623.41;5093138;28;20051;-53
2023/01/30 07:50:32;;;;;;;40.30;8.02;;;;;;;4.30;100.00;101627.84;5093586;28;20024;-54
2023/01/30 07:52:58;;;;;;;40.90;8.30;;;;;;;4.33;100.00;101637.38;5093475;28;20023;-53
2023/01/30 07:55:23;;;;;;;40.92;7.70;;;;;;;4.31;100.00;101629.59;5093531;28;20048;-54
2023/01/30 07:57:48;;;;;;;52.17;8.82;;;;;;;4.34;100.00;101631.47;5093319;28;20032;-54
2023/01/30 08:00:15;;;;;;;44.95;8.40;;;;;;;4.35;100.00;101636.69;5092984;28;20428;-54
2023/01/30 08:02:40;;;;;;;52.72;9.18;;;;;;;4.28;100.00;101637.94;5093220;28;20028;-54
2023/01/30 08:05:06;;;;;;;43.75;8.57;;;;;;;4.29;100.00;101637.16;5093407;28;20043;-55
2023/01/30 08:07:31;;;;;;;43.33;8.90;;;;;;;4.27;100.00;101638.72;5092711;28;20356;-54
2023/01/30 08:09:56;;;;;;;45.88;8.13;;;;;;;4.24;100.00;101638.50;5093346;28;20055;-54
2023/01/30 08:12:22;;;;;;;55.35;9.55;;;;;;;4.31;100.00;101638.94;5093377;28;20055;-54
2023/01/30 08:14:47;;;;;;;48.83;8.55;;;;;;;4.29;100.00;101644.81;5092574;28;20048;-55
2023/01/30 08:17:12;;;;;;;42.97;8.05;;;;;;;4.32;100.00;101649.22;5093304;28;20050;-54
2023/01/30 08:19:37;;;;;;;43.58;8.45;;;;;;;4.34;100.00;101641.66;5092960;28;20048;-54
2023/01/30 08:22:03;;;;;;;57.22;8.93;;;;;;;4.37;100.00;101652.09;5092807;28;20455;-54
2023/01/30 08:24:28;;;;;;;54.92;8.40;;;;;;;4.39;100.00;101658.19;5092728;28;20091;-54
2023/01/30 08:26:54;;;;;;;51.67;8.93;;;;;;;4.39;100.00;101663.28;5093097;28;20032;-54
2023/01/30 08:29:19;;;;;;;49.53;8.48;;;;;;;4.42;100.00;101655.84;5092549;28;20073;-54
2023/01/30 08:31:44;;;;;;;44.95;8.35;;;;;;;4.47;100.00;101672.38;5092781;28;20035;-54
2023/01/30 08:34:10;;;;;;;55.35;8.00;;;;;;;4.52;100.00;101667.56;5093029;28;20585;-54
2023/01/30 08:36:35;;;;;;;54.28;8.93;;;;;;;4.52;100.00;101665.91;5092260;28;20032;-55
2023/01/30 08:39:00;;;;;;;52.97;8.75;;;;;;;4.64;99.56;101660.72;5092957;28;20042;-55
2023/01/30 08:41:27;;;;;;;42.42;7.43;;;;;;;4.69;99.85;101668.72;5092758;28;20031;-54
2023/01/30 08:43:52;;;;;;;47.85;7.90;;;;;;;4.73;100.00;101678.34;5092319;28;20024;-54
2023/01/30 08:46:20;;;;;;;47.60;7.93;;;;;;;4.73;99.22;101678.34;5092559;28;20020;-54
2023/01/30 08:48:46;;;;;;;46.03;8.13;;;;;;;4.76;98.28;101681.09;5092544;28;20043;-55
2023/01/30 08:51:12;;;;;;;40.55;6.93;;;;;;;4.84;98.37;101676.47;5092270;28;20028;-54
2023/01/30 08:53:37;;;;;;;49.63;8.45;;;;;;;4.92;98.24;101658.34;5092562;28;20051;-54
2023/01/30 08:56:02;;;;;;;50.85;7.63;;;;;;;4.94;97.58;101661.88;5092821;28;20028;-54
2023/01/30 08:58:28;;;;;;;45.65;7.75;;;;;;;5.10;96.16;101657.78;5091769;28;20039;-55
2023/01/30 09:00:53;;;;;;;45.38;8.02;;;;;;;5.19;96.38;101685.56;5092977;28;20371;-55
2023/01/30 09:03:18;;;;;;;47.47;8.00;;;;;;;5.22;96.54;101679.00;5092161;28;20040;-52
2023/01/30 09:05:44;;;;;;;43.25;8.18;;;;;;;5.24;96.14;101697.88;5092402;28;20380;-54
2023/01/30 09:08:09;;;;;;;50.08;7.68;;;;;;;5.28;96.07;101679.41;5092702;28;20028;-54
2023/01/30 09:10:35;;;;;;;38.88;6.95;;;;;;;5.38;94.32;101687.66;5091875;28;20051;-53
2023/01/30 09:13:00;;;;;;;47.25;7.80;;;;;;;5.41;94.61;101700.63;5092529;28;20032;-53
2023/01/30 09:15:26;;;;;;;39.53;6.93;;;;;;;5.44;94.83;101711.06;5092550;28;20073;-55
2023/01/30 09:17:51;;;;;;;48.95;8.00;;;;;;;5.48;94.27;101718.13;5092221;28;20093;-52
2023/01/30 09:20:19;;;;;;;46.33;6.82;;;;;;;5.51;94.63;101705.53;5092346;28;20459;-55
2023/01/30 09:22:45;;;;;;;49.63;7.43;;;;;;;5.53;95.11;101716.75;5093153;28;20020;-53
2023/01/30 09:25:10;;;;;;;41.83;7.47;;;;;;;5.53;94.47;101711.63;5096032;28;20038;-55
2023/01/30 09:27:35;;;;;;;43.30;7.65;;;;;;;5.54;93.76;101713.41;5095915;28;20024;-54
2023/01/30 09:30:02;;;;;;;42.67;7.57;;;;;;;5.58;95.15;101720.50;5096640;28;20028;-55
2023/01/30 09:32:27;;;;;;;42.35;7.22;;;;;;;5.70;93.76;101714.41;5095814;28;20035;-55
2023/01/30 09:34:52;;;;;;;41.30;7.18;;;;;;;5.75;92.12;101718.13;5096247;28;20020;-54
2023/01/30 09:37:18;;;;;;;44.00;8.80;;;;;;;5.80;91.72;101726.06;5096417;28;20392;-55
2023/01/30 09:39:43;;;;;;;41.55;6.85;;;;;;;5.87;90.49;101741.91;5095453;28;20472;-52
2023/01/30 09:42:39;;;;;;;42.60;7.88;;;;;;;6.06;90.70;101730.31;5095903;28;20020;-55
2023/01/30 09:45:23;;;;;;;40.42;6.55;;;;;;;6.31;90.32;101736.94;5096269;28;20023;-55
2023/01/30 09:48:27;;;;;;;42.65;6.90;;;;;;;6.30;89.00;101720.72;5095563;28;20044;-54
2023/01/30 09:51:09;;;;;;;46.13;7.28;;;;;;;6.30;88.64;101730.03;5096226;28;20059;-54
2023/01/30 09:53:53;;;;;;;43.97;6.75;;;;;;;6.56;88.48;101723.97;5095451;28;20031;-55
2023/01/30 09:56:18;;;;;;;44.65;7.68;;;;;;;6.64;87.54;101740.66;5095836;28;20024;-55
2023/01/30 09:58:53;;;;;;;40.90;7.35;;;;;;;6.70;88.94;101737.56;5095609;28;20016;-55
2023/01/30 10:02:03;;;;;;;40.50;7.47;;;;;;;6.76;87.67;101750.75;5095321;28;20021;-52
2023/01/30 10:04:39;;;;;;;41.83;6.75;;;;;;;6.86;86.25;101745.38;5071282;28;20044;-54
2023/01/30 10:07:29;;;;;;;41.33;6.57;;;;;;;6.88;85.95;101748.03;5095124;28;20028;-55
2023/01/30 10:10:09;;;;;;;40.25;6.85;;;;;;;6.80;84.46;101739.03;5095634;28;20125;-55
2023/01/30 10:12:57;;;;;;;44.85;7.40;;;;;;;6.78;85.65;101762.00;5095360;28;20433;-54
2023/01/30 10:15:54;;;;;;;40.20;6.82;;;;;;;6.74;86.75;101750.66;5094737;28;20035;-53
2023/01/30 10:18:38;;;;;;;30.73;5.82;;;;;;;6.66;84.70;101762.16;5095565;28;20475;-56
2023/01/30 10:21:23;;;;;;;37.30;6.60;;;;;;;6.58;84.40;101748.88;5095028;28;20103;-56
2023/01/30 10:24:03;;;;;;;35.05;6.50;;;;;;;6.54;85.75;101766.50;5094957;28;20032;-56
2023/01/30 10:26:30;;;;;;;49.65;6.97;;;;;;;6.50;85.53;101755.19;5095044;28;20445;-56
2023/01/30 10:29:01;;;;;;;46.00;6.85;;;;;;;6.46;86.74;101768.59;5095035;28;20078;-56
2023/01/30 10:31:33;;;;;;;50.35;6.70;;;;;;;6.49;85.36;101763.66;5094885;28;20032;-56
2023/01/30 10:34:02;;;;;;;36.50;6.47;;;;;;;6.50;83.09;101790.16;5095198;28;20028;-56
2023/01/30 10:36:53;;;;;;;30.50;5.82;;;;;;;6.51;84.00;101767.22;5094105;28;20036;-56
2023/01/30 10:39:33;;;;;;;32.63;6.28;;;;;;;6.55;86.37;101788.78;5095356;28;20138;-56
2023/01/30 10:42:09;;;;;;;33.63;5.75;;;;;;;6.56;84.60;101781.19;5094700;28;20521;-56
2023/01/30 10:44:35;;;;;;;31.00;6.30;;;;;;;6.51;83.66;101787.69;5094525;28;20050;-55
2023/01/30 10:47:42;;;;;;;38.60;6.50;;;;;;;6.50;83.64;101783.38;5094864;28;20032;-56
2023/01/30 10:50:17;;;;;;;35.38;5.93;;;;;;;6.42;82.51;101792.25;5083455;28;20118;-56
2023/01/30 10:52:56;;;;;;;34.13;5.95;;;;;;;6.41;82.12;101790.50;5094687;28;20103;-55
2023/01/30 10:55:46;;;;;;;34.63;5.97;;;;;;;6.42;82.25;101782.03;5094775;28;20036;-56
2023/01/30 10:58:35;;;;;;;39.17;5.53;;;;;;;6.39;83.77;101790.41;5094840;28;20028;-53
2023/01/30 11:01:24;;;;;;;36.58;5.78;;;;;;;6.39;83.85;101782.72;5082005;28;20384;-53
2023/01/30 11:04:00;;;;;;;37.70;6.28;;;;;;;6.36;81.50;101791.88;5073258;28;20435;-55
2023/01/30 11:06:26;;;;;;;27.75;6.05;;;;;;;6.34;80.65;101794.34;5073945;28;20032;-56
2023/01/30 11:08:53;;;;;;;36.33;6.07;;;;;;;6.34;81.53;101804.59;5074443;28;20401;-56
2023/01/30 11:11:24;;;;;;;40.88;9.52;;;;;;;6.36;80.92;101802.13;5073865;28;20021;-56
2023/01/30 11:13:49;;;;;;;38.95;5.75;;;;;;;6.42;81.27;101795.69;5073851;28;20046;-56
2023/01/30 11:16:15;;;;;;;36.40;6.43;;;;;;;6.48;81.13;101779.84;5074369;28;20024;-54
2023/01/30 11:18:49;;;;;;;36.45;5.88;;;;;;;6.45;81.61;101777.06;5073159;28;20024;-52
2023/01/30 11:21:29;;;;;;;34.92;5.95;;;;;;;6.51;81.18;101776.59;5074266;28;20032;-55
2023/01/30 11:23:55;;;;;;;35.42;6.55;;;;;;;6.59;80.33;101786.47;5073601;28;20029;-54
2023/01/30 11:26:24;;;;;;;32.70;6.40;;;;;;;6.64;78.73;101788.47;5073539;28;20032;-54